^^
Station Historical Data
Daily Summary for January 27, 2018 Units:  Metric    English   Both
« Previous Day
Next Day »
Daily Weekly Monthly Yearly Custom
  High: Low: Average:
Temperature: -17.8 °C 13.4 °C 20.4 °C
Dew Point: -17.8 °C 2 °C 9.4 °C
Humidity: Humidity% 16% 55%
Wind Speed: 0km/h 9.7km/h 19km/h
Wind Gust: 0km/h - -
Wind- - SSW
Pressure: 0 hPa 1006 hPa -
Precipitation: 0 mm    
Historical Graphs
 
 
Tabular Data for January 27, 2018
Time Temperature Dew Point Pressure Wind Wind Speed Wind Gust Humidity Rainfall Rate (Hourly) solar Conditions
-17.8 °C -17.8 °C 0 hPa Calm     Humidity% 0 mm SolarRadiationWatts/m^2 W/m2 Conditions
00:01 17.9 °C 11 °C 1010 hPa SSW 19.5 km/h 25.7 km/h 64% 0 mm 0.0 W/m2
00:06 17.8 °C 10.9 °C 1010 hPa South 17.7 km/h 27.4 km/h 64% 0 mm 0.0 W/m2
00:11 17.7 °C 11 °C 1010 hPa SSW 22.7 km/h 27.4 km/h 65% 0 mm 0.0 W/m2
00:16 17.6 °C 10.9 °C 1010 hPa SSW 22.7 km/h 27.4 km/h 65% 0 mm 0.0 W/m2
00:26 17.4 °C 11 °C 1010 hPa SSW 17.7 km/h 32.2 km/h 66% 0 mm 0.0 W/m2
00:36 17.2 °C 11 °C 1010 hPa SSW 24.1 km/h 29 km/h 67% 0 mm 0.0 W/m2
00:41 17.1 °C 11.1 °C 1010 hPa SSW 22.7 km/h 32.2 km/h 68% 0 mm 0.0 W/m2
00:46 17 °C 11.1 °C 1010 hPa South 19.5 km/h 30.6 km/h 68% 0 mm 0.0 W/m2
00:52 16.9 °C 11.2 °C 1010 hPa South 22.7 km/h 29 km/h 69% 0 mm 0.0 W/m2
00:57 16.8 °C 11.1 °C 1010 hPa SSW 19.5 km/h 24.1 km/h 69% 0 mm 0.0 W/m2
01:02 16.7 °C 11 °C 1009.7 hPa South 22.7 km/h 27.4 km/h 69% 0 mm 0.0 W/m2
01:07 16.6 °C 11.1 °C 1009.7 hPa SSW 32 km/h 37 km/h 70% 0 mm 0.0 W/m2
01:12 16.4 °C 11.1 °C 1009.7 hPa South 22.7 km/h 35.4 km/h 71% 0 mm 0.0 W/m2
01:17 16.3 °C 11 °C 1009.7 hPa South 28.8 km/h 33.8 km/h 71% 0 mm 0.0 W/m2
01:22 16.3 °C 11.2 °C 1009.7 hPa SSW 27.4 km/h 33.8 km/h 72% 0 mm 0.0 W/m2
01:32 16.1 °C 11.1 °C 1009.7 hPa South 19.5 km/h 40.2 km/h 72% 0 mm 0.0 W/m2
01:37 15.9 °C 11.1 °C 1009.7 hPa SSW 27.4 km/h 32.2 km/h 73% 0 mm 0.0 W/m2
01:42 15.8 °C 11 °C 1009.7 hPa South 28.8 km/h 29 km/h 73% 0 mm 0.0 W/m2
01:47 15.8 °C 11.2 °C 1009.4 hPa SSW 28.8 km/h 37 km/h 74% 0 mm 0.0 W/m2
01:57 15.5 °C 10.9 °C 1009.4 hPa SSW 32 km/h 35.4 km/h 74% 0 mm 0.0 W/m2
02:02 15.4 °C 11 °C 1009.7 hPa South 24.1 km/h 30.6 km/h 75% 0 mm 0.0 W/m2
02:12 15.3 °C 10.9 °C 1010 hPa South 19.5 km/h 22.5 km/h 75% 0 mm 0.0 W/m2
02:17 15.2 °C 11 °C 1010 hPa South 14.3 km/h 25.7 km/h 76% 0 mm 0.0 W/m2
02:27 15.2 °C 11 °C 1010.4 hPa South 17.7 km/h 20.9 km/h 76% 0 mm 0.0 W/m2
02:32 15.1 °C 10.9 °C 1010.4 hPa South 11.1 km/h 19.3 km/h 76% 0 mm 0.0 W/m2
02:37 15.1 °C 11.1 °C 1010.7 hPa SSE 16.3 km/h 20.9 km/h 77% 0 mm 0.0 W/m2
02:43 15.1 °C 10.9 °C 1010.7 hPa South 22.7 km/h 22.7 km/h 76% 0 mm 0.0 W/m2
02:48 14.9 °C 10.7 °C 1010.4 hPa South 19.5 km/h 24.1 km/h 76% 0 mm 0.0 W/m2
02:53 14.9 °C 10.7 °C 1010.7 hPa SSE 17.7 km/h 20.9 km/h 76% 0 mm 0.0 W/m2
03:03 14.8 °C 10.4 °C 1010.4 hPa SSE 16.3 km/h 22.5 km/h 75% 0 mm 0.0 W/m2
03:08 14.8 °C 10.6 °C 1010.7 hPa SSE 19.5 km/h 24.1 km/h 76% 0 mm 0.0 W/m2
03:13 14.7 °C 10.5 °C 1010.7 hPa SSE 22.7 km/h 22.7 km/h 76% 0 mm 0.0 W/m2
03:18 14.6 °C 10.4 °C 1010.4 hPa SSE 20.9 km/h 24.1 km/h 76% 0 mm 0.0 W/m2
03:23 14.6 °C 10.4 °C 1010.4 hPa South 16.3 km/h 24.1 km/h 76% 0 mm 0.0 W/m2
03:28 14.5 °C 10.5 °C 1010.4 hPa South 19.5 km/h 29 km/h 77% 0 mm 0.0 W/m2
03:38 14.4 °C 10.4 °C 1010.4 hPa South 16.3 km/h 22.5 km/h 77% 0 mm 0.0 W/m2
03:43 14.3 °C 10.3 °C 1010 hPa South 19.5 km/h 22.5 km/h 77% 0 mm 0.0 W/m2
03:48 14.3 °C 10.3 °C 1010 hPa South 19.5 km/h 27.4 km/h 77% 0 mm 0.0 W/m2
03:58 14.3 °C 10.3 °C 1010 hPa South 16.3 km/h 25.7 km/h 77% 0 mm 0.0 W/m2
04:03 14.2 °C 10.2 °C 1010 hPa SSE 14.3 km/h 20.9 km/h 77% 0 mm 0.0 W/m2
04:13 14.2 °C 10.2 °C 1010 hPa South 13 km/h 22.5 km/h 77% 0 mm 0.0 W/m2
04:18 14.2 °C 10.4 °C 1010 hPa SSW 16.3 km/h 17.7 km/h 78% 0 mm 0.0 W/m2
04:23 14.1 °C 10.3 °C 1010 hPa SSW 22.7 km/h 24.1 km/h 78% 0 mm 0.0 W/m2
04:28 14.1 °C 10.3 °C 1010 hPa South 14.3 km/h 19.3 km/h 78% 0 mm 0.0 W/m2
04:33 14.1 °C 10.3 °C 1009.7 hPa South 22.7 km/h 27.4 km/h 78% 0 mm 0.0 W/m2
04:38 14 °C 10.2 °C 1010 hPa SSW 20.9 km/h 22.5 km/h 78% 0 mm 0.0 W/m2
04:43 14 °C 10.2 °C 1009.7 hPa South 14.3 km/h 25.7 km/h 78% 0 mm 0.0 W/m2
04:48 13.9 °C 10.1 °C 1009.7 hPa SSW 19.5 km/h 29 km/h 78% 0 mm 0.0 W/m2
04:53 13.9 °C 10.1 °C 1009.7 hPa SSW 19.5 km/h 25.7 km/h 78% 0 mm 0.0 W/m2
04:58 13.9 °C 10.1 °C 1009.7 hPa SSW 30.6 km/h 30.6 km/h 78% 0 mm 0.0 W/m2
05:03 13.8 °C 10 °C 1009.7 hPa SSW 20.9 km/h 27.4 km/h 78% 0 mm 0.0 W/m2
05:08 13.8 °C 10 °C 1009.7 hPa SSW 24.1 km/h 24.1 km/h 78% 0 mm 0.0 W/m2
05:13 13.8 °C 10 °C 1009.7 hPa SSW 22.7 km/h 30.6 km/h 78% 0 mm 0.0 W/m2
05:18 13.8 °C 10 °C 1010 hPa South 17.7 km/h 25.7 km/h 78% 0 mm 0.0 W/m2
05:28 13.8 °C 10 °C 1010 hPa SSW 16.3 km/h 22.5 km/h 78% 0 mm 0.0 W/m2
05:33 13.8 °C 10 °C 1009.7 hPa SSW 22.7 km/h 27.4 km/h 78% 0 mm 0.0 W/m2
05:43 13.7 °C 10.1 °C 1009.7 hPa SSW 24.1 km/h 24.1 km/h 79% 0 mm 0.0 W/m2
05:53 13.7 °C 10.3 °C 1009.7 hPa SSW 22.7 km/h 25.7 km/h 80% 0 mm 0.0 W/m2
05:59 13.6 °C 10.2 °C 1009.7 hPa SSW 24.1 km/h 27.4 km/h 80% 0 mm 0.0 W/m2
06:08 13.5 °C 10.1 °C 1009.7 hPa SSW 19.5 km/h 25.7 km/h 80% 0 mm 0.0 W/m2
06:13 13.5 °C 10.1 °C 1009.7 hPa SSW 20.9 km/h 22.5 km/h 80% 0 mm 0.0 W/m2
06:26 13.4 °C 10.2 °C 1010 hPa SW 13 km/h 19.3 km/h 81% 0 mm 7.0 W/m2
06:54 13.7 °C 10.3 °C 1010.4 hPa SSW 19.5 km/h 19.5 km/h 80% 0 mm 40.0 W/m2
07:09 13.9 °C 10.5 °C 1010.4 hPa South 17.7 km/h 20.9 km/h 80% 0 mm 90.0 W/m2
07:58 14.9 °C 10.7 °C 1010.7 hPa South 17.7 km/h 19.3 km/h 76% 0 mm 287.0 W/m2
08:08 15.1 °C 10.7 °C 1010.7 hPa South 13 km/h 19.3 km/h 75% 0 mm 320.0 W/m2
08:18 15.4 °C 10.8 °C 1010.7 hPa SSW 16.3 km/h 20.9 km/h 74% 0 mm 359.0 W/m2
08:27 15.7 °C 10.9 °C 1010.7 hPa South 13 km/h 20.9 km/h 73% 0 mm 392.0 W/m2
08:36 15.9 °C 10.6 °C 1010.7 hPa SSW 20.9 km/h 24.1 km/h 71% 0 mm 427.0 W/m2
08:44 16.3 °C 10.8 °C 1010.7 hPa SSW 16.3 km/h 19.3 km/h 70% 0 mm 461.0 W/m2
08:49 16.3 °C 10.6 °C 1010.7 hPa SSW 17.7 km/h 20.9 km/h 69% 0 mm 478.0 W/m2
08:55 16.6 °C 10.7 °C 1010.7 hPa SSW 17.7 km/h 20.9 km/h 68% 0 mm 499.0 W/m2
09:00 16.9 °C 10.7 °C 1011.1 hPa SSW 17.7 km/h 20.9 km/h 67% 0 mm 517.0 W/m2
09:10 17.2 °C 10.8 °C 1011.1 hPa SSW 14.3 km/h 17.7 km/h 66% 0 mm 550.0 W/m2
09:19 17.5 °C 10.6 °C 1011.1 hPa SSW 17.7 km/h 17.7 km/h 64% 0 mm 582.0 W/m2
09:24 17.7 °C 10.6 °C 1011.1 hPa SSW 9.7 km/h 16.1 km/h 63% 0 mm 596.0 W/m2
09:30 17.9 °C 10.8 °C 1011.1 hPa SW 11.1 km/h 16.1 km/h 63% 0 mm 613.0 W/m2
09:35 18.3 °C 10.6 °C 1010.7 hPa SSW 16.3 km/h 19.3 km/h 61% 0 mm 631.0 W/m2
09:40 18.4 °C 10.7 °C 1010.7 hPa SSW 14.3 km/h 17.7 km/h 61% 0 mm 647.0 W/m2
09:47 18.4 °C 10.5 °C 1010.7 hPa SSW 9.7 km/h 14.5 km/h 60% 0 mm 663.0 W/m2
09:53 18.6 °C 10.4 °C 1010.7 hPa SW 13 km/h 16.1 km/h 59% 0 mm 677.0 W/m2
10:04 19.2 °C 10.2 °C 1011.1 hPa SW 13 km/h 14.5 km/h 56% 0 mm 705.0 W/m2
10:14 20 °C 10.4 °C 1010.7 hPa SW 11.1 km/h 17.7 km/h 54% 0 mm 733.0 W/m2
10:23 20.3 °C 10.4 °C 1010.7 hPa SSW 13 km/h 20.9 km/h 53% 0 mm 761.0 W/m2
10:31 20.7 °C 10.2 °C 1010.7 hPa SSW 11.1 km/h 20.9 km/h 51% 0 mm 788.0 W/m2
10:36 20.9 °C 10.1 °C 1010.7 hPa SSW 13 km/h 20.9 km/h 50% 0 mm 798.0 W/m2
10:41 21.1 °C 10 °C 1010.7 hPa SSW 11.1 km/h 19.3 km/h 49% 0 mm 810.0 W/m2
10:46 21.3 °C 9.8 °C 1010.7 hPa SSW 11.1 km/h 19.3 km/h 48% 0 mm 823.0 W/m2
10:57 22.1 °C 9.9 °C 1010.4 hPa SSW 14.3 km/h 19.3 km/h 46% 0 mm 844.0 W/m2
11:04 22.1 °C 9.9 °C 1010.4 hPa South 16.3 km/h 19.3 km/h 46% 0 mm 854.0 W/m2
11:30 23.6 °C 10.3 °C 1010.4 hPa SW 13 km/h 20.9 km/h 43% 0 mm 900.0 W/m2
11:38 23.7 °C 9.7 °C 1010.4 hPa SSW 17.7 km/h 22.5 km/h 41% 0 mm 916.0 W/m2
11:46 24.3 °C 9.5 °C 1010 hPa SSW 11.1 km/h 25.7 km/h 39% 0 mm 928.0 W/m2
11:51 24.4 °C 9.5 °C 1010 hPa South 13 km/h 20.9 km/h 39% 0 mm 937.0 W/m2
11:56 24.6 °C 9.7 °C 1010 hPa SSW 16.3 km/h 29 km/h 39% 0 mm 942.0 W/m2
12:14 25.3 °C 10 °C 1009.7 hPa SW 22.7 km/h 24.1 km/h 38% 0 mm 958.0 W/m2
12:27 26.1 °C 9.4 °C 1009.7 hPa South 14.3 km/h 22.5 km/h 35% 0 mm 967.0 W/m2
12:42 26.5 °C 9.4 °C 1009.4 hPa SW 22.7 km/h 25.7 km/h 34% 0 mm 970.0 W/m2
13:10 27.7 °C 9 °C 1009 hPa South 14.3 km/h 25.7 km/h 31% 0 mm 979.0 W/m2
13:19 28.1 °C 8.9 °C 1008.7 hPa South 20.9 km/h 24.1 km/h 30% 0 mm 979.0 W/m2
13:27 28.2 °C 9 °C 1008.7 hPa SW 24.1 km/h 27.4 km/h 30% 0 mm 976.0 W/m2
13:36 28.8 °C 9 °C 1008.7 hPa SSW 17.7 km/h 24.1 km/h 29% 0 mm 974.0 W/m2
13:41 28.8 °C 9 °C 1008.7 hPa SSW 22.7 km/h 22.7 km/h 29% 0 mm 965.0 W/m2
13:47 29.1 °C 9.3 °C 1008.4 hPa SW 24.1 km/h 30.6 km/h 29% 0 mm 962.0 W/m2
13:55 29.2 °C 9.3 °C 1008.4 hPa SW 16.3 km/h 25.7 km/h 29% 0 mm 956.0 W/m2
14:08 29.4 °C 9 °C 1008.4 hPa SSW 14.3 km/h 22.5 km/h 28% 0 mm 949.0 W/m2
14:23 29.9 °C 8.9 °C 1008 hPa SW 24.1 km/h 27.4 km/h 27% 0 mm 928.0 W/m2
14:39 30.1 °C 8.5 °C 1008 hPa SW 20.9 km/h 27.4 km/h 26% 0 mm 911.0 W/m2
14:54 30.6 °C 8.3 °C 1007.7 hPa SW 20.9 km/h 20.9 km/h 25% 0 mm 882.0 W/m2
15:09 30.5 °C 7.6 °C 1007.7 hPa South 20.9 km/h 25.7 km/h 24% 0 mm 858.0 W/m2
15:29 31 °C 7.4 °C 1007.3 hPa SSW 16.3 km/h 24.1 km/h 23% 0 mm 816.0 W/m2
15:43 31.2 °C 7 °C 1007.3 hPa SW 20.9 km/h 27.4 km/h 22% 0 mm 775.0 W/m2
15:57 31.2 °C 7 °C 1007 hPa SSE 17.7 km/h 27.4 km/h 22% 0 mm 742.0 W/m2
16:07 31.5 °C 6.5 °C 1007 hPa South 13 km/h 25.7 km/h 21% 0 mm 698.0 W/m2
16:22 32 °C 6.2 °C 1006.7 hPa SSW 19.5 km/h 27.4 km/h 20% 0 mm 654.0 W/m2
16:37 31.7 °C 5.2 °C 1006.3 hPa SSE 19.5 km/h 22.5 km/h 19% 0 mm 608.0 W/m2
16:52 31.8 °C 4.6 °C 1006.3 hPa SSW 24.1 km/h 27.4 km/h 18% 0 mm 561.0 W/m2
17:07 32 °C 3.9 °C 1006.3 hPa South 24.1 km/h 27.4 km/h 17% 0 mm 526.0 W/m2
17:21 31.8 °C 2.9 °C 1006 hPa South 27.4 km/h 30.6 km/h 16% 0 mm 478.0 W/m2
17:30 31.6 °C 2.7 °C 1006.3 hPa South 19.5 km/h 33.8 km/h 16% 0 mm 443.0 W/m2
17:40 31.4 °C 2.6 °C 1006 hPa SSW 19.5 km/h 27.4 km/h 16% 0 mm 408.0 W/m2
17:47 31.2 °C 2.4 °C 1006.3 hPa South 30.6 km/h 32.2 km/h 16% 0 mm 374.0 W/m2
18:02 31.3 °C 2.5 °C 1006.3 hPa SW 24.1 km/h 29 km/h 16% 0 mm 338.0 W/m2
18:07 31.1 °C 2.3 °C 1006.3 hPa South 20.9 km/h 35.4 km/h 16% 0 mm 302.0 W/m2
18:22 30.9 °C 2.2 °C 1006.3 hPa South 19.5 km/h 32.2 km/h 16% 0 mm 265.0 W/m2
18:27 30.7 °C 2 °C 1006.3 hPa South 17.7 km/h 29 km/h 16% 0 mm 225.0 W/m2
18:47 30.3 °C 2.5 °C 1006.7 hPa South 24.1 km/h 33.8 km/h 17% 0 mm 155.0 W/m2
18:53 30.2 °C 2.4 °C 1006.7 hPa SSW 24.1 km/h 30.6 km/h 17% 0 mm 111.0 W/m2
19:03 30 °C 3.1 °C 1006.7 hPa SSW 27.4 km/h 27.4 km/h 18% 0 mm 74.0 W/m2
19:23 29.5 °C 2.7 °C 1007 hPa SSW 19.5 km/h 33.8 km/h 18% 0 mm 23.0 W/m2
19:38 29.1 °C 2.4 °C 1007 hPa South 24.1 km/h 27.4 km/h 18% 0 mm 11.0 W/m2
19:53 28.4 °C 4 °C 1007.3 hPa South 25.9 km/h 32.2 km/h 21% 0 mm 0.0 W/m2
20:08 28 °C 5.5 °C 1007.3 hPa South 20.9 km/h 25.7 km/h 24% 0 mm 0.0 W/m2
20:13 27.4 °C 8.8 °C 1007.3 hPa SSW 28.8 km/h 30.6 km/h 31% 0 mm 0.0 W/m2
20:27 26.9 °C 10.1 °C 1007.3 hPa SSW 17.7 km/h 29 km/h 35% 0 mm 0.0 W/m2
20:35 26.4 °C 10.5 °C 1007.7 hPa SSW 17.7 km/h 32.2 km/h 37% 0 mm 0.0 W/m2
21:39 23.9 °C 11.9 °C 1008.4 hPa SSW 25.9 km/h 25.9 km/h 47% 0 mm 0.0 W/m2
21:44 23.7 °C 12 °C 1008.7 hPa SSW 27.4 km/h 27.4 km/h 48% 0 mm 0.0 W/m2
21:49 23.6 °C 11.9 °C 1008.7 hPa SSW 17.7 km/h 25.7 km/h 48% 0 mm 0.0 W/m2
21:54 23.4 °C 11.8 °C 1008.7 hPa SSW 20.9 km/h 30.6 km/h 48% 0 mm 0.0 W/m2
21:59 23.2 °C 11.9 °C 1008.7 hPa SSW 16.3 km/h 27.4 km/h 49% 0 mm 0.0 W/m2
22:09 22.9 °C 11.9 °C 1009 hPa South 20.9 km/h 27.4 km/h 50% 0 mm 0.0 W/m2
22:14 22.8 °C 11.8 °C 1009 hPa SSW 16.3 km/h 24.1 km/h 50% 0 mm 0.0 W/m2
22:19 22.7 °C 11.7 °C 1009 hPa SSW 16.3 km/h 24.1 km/h 50% 0 mm 0.0 W/m2
22:24 22.6 °C 11.6 °C 1009 hPa SSW 14.3 km/h 24.1 km/h 50% 0 mm 0.0 W/m2
22:29 22.4 °C 11.5 °C 1009 hPa South 19.5 km/h 24.1 km/h 50% 0 mm 0.0 W/m2
22:34 22.3 °C 11.7 °C 1009 hPa SSW 11.1 km/h 17.7 km/h 51% 0 mm 0.0 W/m2
22:40 22.2 °C 11.6 °C 1009.4 hPa South 14.3 km/h 22.5 km/h 51% 0 mm 0.0 W/m2
22:45 22.1 °C 11.5 °C 1009.4 hPa SSW 16.3 km/h 16.3 km/h 51% 0 mm 0.0 W/m2
22:50 22 °C 11.4 °C 1009.4 hPa SSW 17.7 km/h 19.3 km/h 51% 0 mm 0.0 W/m2
22:55 21.9 °C 11.3 °C 1009.7 hPa SSW 13 km/h 16.1 km/h 51% 0 mm 0.0 W/m2
23:00 21.8 °C 11.5 °C 1009.4 hPa SSW 14.3 km/h 19.3 km/h 52% 0 mm 0.0 W/m2
23:05 21.7 °C 11.4 °C 1009.4 hPa SSW 14.3 km/h 19.3 km/h 52% 0 mm 0.0 W/m2
23:15 21.6 °C 11.3 °C 1009.7 hPa South 19.5 km/h 19.5 km/h 52% 0 mm 0.0 W/m2
23:25 21.4 °C 11.4 °C 1009.7 hPa SSW 13 km/h 22.5 km/h 53% 0 mm 0.0 W/m2
23:30 21.3 °C 11.3 °C 1009.7 hPa South 19.5 km/h 24.1 km/h 53% 0 mm 0.0 W/m2
23:40 21.1 °C 11.7 °C 1009.7 hPa SSW 17.7 km/h 24.1 km/h 55% 0 mm 0.0 W/m2
23:45 21.1 °C 11.7 °C 1009.7 hPa SSW 16.3 km/h 20.9 km/h 55% 0 mm 0.0 W/m2
23:50 21 °C 11.9 °C 1009.4 hPa SSW 16.3 km/h 19.3 km/h 56% 0 mm 0.0 W/m2
23:55 20.9 °C 11.8 °C 1009.4 hPa South 19.5 km/h 22.5 km/h 56% 0 mm 0.0 W/m2
Canyon Roadhouse, Fishriver Canyon, Namibia
Compliments of Weather Underground - 2.5 mb